Time;durP1;ratioP1;P1;durP2;ratioP2;P2;SDS_P1;SDS_P2;PMS_P1;PMS_P2;Temp;Humidity;BMP_temperature;BMP_pressure;BME280_temperature;BME280_humidity;BME280_pressure;Samples;Min_cycle;Max_cycle;Signal;HPM_P1;HPM_P2
2021/08/31 00:00:22;;;;;;;14.93;5.00;;;19.80;85.90;;;;;;5000510;28;20030;-72
2021/08/31 00:02:47;;;;;;;16.52;4.78;;;19.80;86.00;;;;;;5003459;28;20022;-72
2021/08/31 00:05:14;;;;;;;12.63;3.80;;;19.80;86.00;;;;;;5002604;28;20406;-72
2021/08/31 00:07:39;;;;;;;11.48;4.22;;;19.80;86.10;;;;;;5010071;28;20505;-72
2021/08/31 00:10:07;;;;;;;18.63;4.63;;;19.80;86.20;;;;;;5012531;28;20112;-72
2021/08/31 00:12:33;;;;;;;14.10;4.50;;;19.70;86.30;;;;;;5006737;28;20113;-72
2021/08/31 00:14:59;;;;;;;16.63;4.57;;;19.70;86.40;;;;;;5001158;28;20037;-72
2021/08/31 00:17:24;;;;;;;14.65;4.25;;;19.70;86.50;;;;;;5010902;28;20034;-72
2021/08/31 00:19:50;;;;;;;19.27;4.80;;;19.70;86.60;;;;;;5011603;28;20109;-72
2021/08/31 00:22:15;;;;;;;14.55;4.78;;;19.70;86.80;;;;;;5002271;28;20040;-72
2021/08/31 00:24:41;;;;;;;20.42;4.38;;;19.70;87.10;;;;;;5007643;28;20470;-71
2021/08/31 00:27:09;;;;;;;14.65;4.60;;;19.60;87.10;;;;;;5012261;28;20133;-71
2021/08/31 00:29:35;;;;;;;17.35;4.78;;;19.60;87.30;;;;;;4998790;28;20030;-72
2021/08/31 00:32:00;;;;;;;15.40;4.90;;;19.70;87.50;;;;;;5002813;28;20617;-71
2021/08/31 00:34:26;;;;;;;13.63;4.40;;;19.60;87.70;;;;;;5009998;28;20121;-72
2021/08/31 00:36:52;;;;;;;12.43;4.25;;;19.60;87.70;;;;;;4998638;28;20118;-72
2021/08/31 00:39:19;;;;;;;15.55;3.55;;;19.60;87.90;;;;;;5003586;28;20117;-72
2021/08/31 00:41:46;;;;;;;22.88;4.85;;;19.60;88.00;;;;;;4999297;28;20034;-72
2021/08/31 00:44:24;;;;;;;19.25;4.55;;;19.60;88.10;;;;;;5010897;28;20036;-71
2021/08/31 00:47:00;;;;;;;10.73;4.80;;;19.60;88.30;;;;;;5009910;28;20440;-72
2021/08/31 00:49:31;;;;;;;16.10;4.75;;;19.60;88.30;;;;;;5021113;28;20034;-72
2021/08/31 00:51:58;;;;;;;21.15;5.10;;;19.60;88.50;;;;;;5009425;28;20096;-72
2021/08/31 00:54:25;;;;;;;20.05;5.55;;;19.50;88.40;;;;;;5012028;28;20393;-72
2021/08/31 00:56:54;;;;;;;16.83;4.50;;;19.50;88.60;;;;;;5010792;28;20061;-71
2021/08/31 00:59:21;;;;;;;13.15;4.80;;;19.60;88.70;;;;;;5009506;28;20038;-72
2021/08/31 01:01:54;;;;;;;12.98;4.07;;;19.50;88.80;;;;;;5012419;28;20053;-72
2021/08/31 01:04:21;;;;;;;21.48;4.57;;;19.50;89.00;;;;;;5007940;28;20080;-71
2021/08/31 01:06:53;;;;;;;15.75;3.95;;;19.60;89.00;;;;;;5007119;28;20493;-71
2021/08/31 01:09:19;;;;;;;21.05;5.00;;;19.50;89.10;;;;;;5009254;28;20037;-72
2021/08/31 01:11:46;;;;;;;25.27;4.85;;;19.50;89.30;;;;;;5010624;28;20098;-72
2021/08/31 01:14:12;;;;;;;10.55;4.25;;;19.60;89.60;;;;;;5002068;28;20022;-72
2021/08/31 01:16:41;;;;;;;16.50;4.53;;;19.60;89.80;;;;;;5009388;28;20507;-72
2021/08/31 01:19:06;;;;;;;14.38;5.00;;;19.50;90.00;;;;;;5000375;28;20092;-71
2021/08/31 01:21:32;;;;;;;28.70;6.07;;;19.60;90.00;;;;;;5010693;28;20473;-71
2021/08/31 01:23:58;;;;;;;21.38;5.53;;;19.50;90.10;;;;;;5009795;28;20491;-72
2021/08/31 01:26:27;;;;;;;14.45;5.55;;;19.60;90.10;;;;;;5004642;28;20073;-72
2021/08/31 01:28:53;;;;;;;19.35;5.93;;;19.50;90.40;;;;;;5010128;28;20393;-72
2021/08/31 01:31:18;;;;;;;12.65;5.10;;;19.60;90.20;;;;;;5007902;28;20034;-72
2021/08/31 01:33:44;;;;;;;19.05;4.70;;;19.60;90.10;;;;;;5006051;28;20029;-72
2021/08/31 01:36:21;;;;;;;16.00;4.88;;;19.60;90.10;;;;;;5004068;28;20041;-72
2021/08/31 01:38:48;;;;;;;15.73;5.25;;;19.60;90.20;;;;;;5003569;28;20034;-72
2021/08/31 01:41:14;;;;;;;15.27;5.75;;;19.60;90.10;;;;;;5014344;28;20057;-71
2021/08/31 01:43:41;;;;;;;13.27;5.43;;;19.60;90.20;;;;;;5013649;28;20030;-71
2021/08/31 01:46:07;;;;;;;14.77;6.03;;;19.60;90.20;;;;;;5015004;28;20034;-72
2021/08/31 01:48:32;;;;;;;18.95;5.25;;;19.60;90.30;;;;;;5009210;28;20049;-72
2021/08/31 01:50:58;;;;;;;21.00;5.68;;;19.60;90.30;;;;;;5004370;28;20029;-72
2021/08/31 01:53:24;;;;;;;14.95;5.22;;;19.60;90.30;;;;;;5005606;28;20363;-72
2021/08/31 01:55:49;;;;;;;19.90;5.72;;;19.60;90.40;;;;;;5011632;28;20109;-72
2021/08/31 01:58:15;;;;;;;15.18;5.18;;;19.60;90.40;;;;;;5006839;28;20034;-72
2021/08/31 02:00:41;;;;;;;17.48;5.25;;;19.60;90.30;;;;;;5013632;28;20079;-72
2021/08/31 02:03:06;;;;;;;15.25;5.55;;;19.60;90.30;;;;;;5011474;28;20033;-72
2021/08/31 02:05:32;;;;;;;11.93;5.40;;;19.60;90.30;;;;;;5012171;28;20033;-72
2021/08/31 02:07:58;;;;;;;14.60;5.80;;;19.50;90.20;;;;;;5003558;28;20125;-72
2021/08/31 02:10:24;;;;;;;15.05;4.75;;;19.60;90.20;;;;;;5014994;28;20456;-72
2021/08/31 02:12:50;;;;;;;16.90;5.50;;;19.60;90.50;;;;;;5014810;28;20026;-72
2021/08/31 02:15:15;;;;;;;15.48;5.57;;;19.50;90.20;;;;;;5012911;28;20042;-72
2021/08/31 02:17:42;;;;;;;11.32;4.93;;;19.50;90.30;;;;;;5005466;28;20110;-72
2021/08/31 02:20:08;;;;;;;16.20;4.90;;;19.50;90.30;;;;;;5004448;28;20134;-72
2021/08/31 02:22:34;;;;;;;15.32;5.35;;;19.50;90.30;;;;;;5013995;28;20042;-72
2021/08/31 02:25:00;;;;;;;17.10;4.95;;;19.50;90.30;;;;;;4999307;28;20080;-72
2021/08/31 02:27:25;;;;;;;18.23;5.38;;;19.50;90.30;;;;;;5014608;28;20049;-71
2021/08/31 02:29:51;;;;;;;15.55;5.75;;;19.50;90.30;;;;;;5011830;28;20410;-72
2021/08/31 02:32:17;;;;;;;15.50;5.20;;;19.50;90.40;;;;;;5004882;28;20038;-72
2021/08/31 02:34:43;;;;;;;17.52;6.20;;;19.50;90.40;;;;;;4997872;28;20125;-72
2021/08/31 02:37:08;;;;;;;21.75;6.40;;;19.50;90.50;;;;;;5007647;28;20034;-72
2021/08/31 02:39:35;;;;;;;18.35;6.35;;;19.50;90.50;;;;;;4997054;28;20389;-72
2021/08/31 02:42:01;;;;;;;20.38;6.63;;;19.50;90.60;;;;;;5013153;28;20030;-72
2021/08/31 02:44:27;;;;;;;13.48;5.82;;;19.50;90.60;;;;;;5013483;28;20030;-72
2021/08/31 02:46:53;;;;;;;18.63;6.63;;;19.50;90.70;;;;;;5014644;28;20117;-72
2021/08/31 02:49:19;;;;;;;18.83;6.88;;;19.50;90.70;;;;;;5006820;28;20026;-72
2021/08/31 02:51:44;;;;;;;18.17;5.97;;;19.50;90.80;;;;;;5005763;28;20510;-72
2021/08/31 02:54:10;;;;;;;20.83;6.25;;;19.40;90.80;;;;;;5011481;28;20437;-72
2021/08/31 02:56:36;;;;;;;21.23;5.82;;;19.40;90.80;;;;;;5012189;28;20128;-72
2021/08/31 02:59:01;;;;;;;14.98;5.03;;;19.40;90.90;;;;;;4997069;28;20104;-72
2021/08/31 03:03:54;;;;;;;19.88;6.35;;;19.40;90.90;;;;;;5013932;28;20030;-72
2021/08/31 03:06:19;;;;;;;33.10;5.72;;;19.50;90.90;;;;;;5000484;28;20034;-72
2021/08/31 03:08:45;;;;;;;19.13;5.47;;;19.50;90.90;;;;;;5011462;28;20088;-72
2021/08/31 03:11:10;;;;;;;21.05;4.90;;;19.50;90.80;;;;;;5012249;28;20026;-72
2021/08/31 03:13:36;;;;;;;20.50;5.45;;;19.50;90.90;;;;;;5012044;28;20026;-72
2021/08/31 03:16:02;;;;;;;14.98;5.57;;;19.50;90.90;;;;;;5013787;28;20080;-72
2021/08/31 03:18:28;;;;;;;20.90;5.82;;;19.40;90.80;;;;;;4998694;28;20040;-72
2021/08/31 03:20:53;;;;;;;18.48;5.20;;;19.40;90.80;;;;;;5011817;28;20093;-72
2021/08/31 03:23:19;;;;;;;18.25;5.45;;;19.40;90.80;;;;;;5012935;28;20029;-72
2021/08/31 03:25:45;;;;;;;14.48;5.32;;;19.40;90.80;;;;;;5006868;28;20042;-72
2021/08/31 03:28:11;;;;;;;15.50;5.43;;;19.40;90.80;;;;;;5005617;28;20390;-72
2021/08/31 03:30:37;;;;;;;21.30;5.70;;;19.40;90.80;;;;;;5009186;28;20113;-72
2021/08/31 03:33:02;;;;;;;20.00;5.45;;;19.40;90.80;;;;;;5012471;28;20026;-72
2021/08/31 03:35:28;;;;;;;19.25;5.47;;;19.40;90.80;;;;;;4996983;28;20114;-72
2021/08/31 03:37:53;;;;;;;12.90;5.18;;;19.40;90.80;;;;;;5008483;28;20034;-72
2021/08/31 03:40:19;;;;;;;17.83;5.78;;;19.40;90.90;;;;;;5001133;28;20496;-72
2021/08/31 03:42:46;;;;;;;20.55;5.10;;;19.40;90.80;;;;;;5010978;28;20029;-72
2021/08/31 03:45:13;;;;;;;24.75;5.40;;;19.40;90.90;;;;;;5007421;28;20466;-72
2021/08/31 03:47:39;;;;;;;14.70;5.25;;;19.30;90.80;;;;;;5000015;28;20054;-72
2021/08/31 03:50:05;;;;;;;18.10;5.25;;;19.30;90.80;;;;;;5011853;28;20030;-72
2021/08/31 03:52:31;;;;;;;19.20;5.38;;;19.30;90.80;;;;;;5012652;28;20040;-72
2021/08/31 03:54:56;;;;;;;20.50;5.00;;;19.30;90.90;;;;;;5011845;28;20022;-72
2021/08/31 03:57:22;;;;;;;21.58;4.60;;;19.30;90.90;;;;;;5002029;28;20038;-72
2021/08/31 03:59:48;;;;;;;27.63;6.03;;;19.30;90.90;;;;;;4996223;28;20034;-72
2021/08/31 04:02:14;;;;;;;12.93;5.20;;;19.20;90.90;;;;;;5006964;28;20030;-72
2021/08/31 04:04:40;;;;;;;18.35;5.00;;;19.30;90.90;;;;;;5004454;28;20014;-72
2021/08/31 04:07:06;;;;;;;13.98;5.47;;;19.20;90.90;;;;;;5006024;28;20065;-72
2021/08/31 04:09:31;;;;;;;18.60;5.65;;;19.30;90.90;;;;;;5011304;28;20080;-72
2021/08/31 04:11:57;;;;;;;20.83;5.75;;;19.20;90.80;;;;;;5006809;28;20398;-72
2021/08/31 04:14:23;;;;;;;23.48;5.57;;;19.20;90.80;;;;;;5006465;28;20041;-72
2021/08/31 04:16:48;;;;;;;18.90;4.85;;;19.20;90.80;;;;;;5006001;28;20061;-72
2021/08/31 04:19:14;;;;;;;17.90;5.35;;;19.20;90.80;;;;;;5013051;28;20461;-72
2021/08/31 04:21:40;;;;;;;18.67;4.95;;;19.20;90.70;;;;;;5005724;28;20382;-72
2021/08/31 04:24:06;;;;;;;25.80;5.95;;;19.20;90.70;;;;;;5010361;28;20038;-72
2021/08/31 04:26:31;;;;;;;15.23;5.20;;;19.20;90.70;;;;;;5006932;28;20057;-71
2021/08/31 04:28:57;;;;;;;16.88;4.45;;;19.20;90.80;;;;;;5009665;28;20037;-72
2021/08/31 04:31:23;;;;;;;11.93;4.57;;;19.20;90.80;;;;;;5007501;28;20030;-72
2021/08/31 04:33:52;;;;;;;13.13;4.90;;;19.10;90.80;;;;;;5011731;28;20421;-72
2021/08/31 04:36:18;;;;;;;13.27;4.65;;;19.10;90.80;;;;;;5010825;28;20440;-76
2021/08/31 04:38:44;;;;;;;17.58;5.80;;;19.10;90.80;;;;;;4999002;28;20026;-73
2021/08/31 04:41:10;;;;;;;20.23;5.50;;;19.10;90.80;;;;;;5006308;28;20056;-78
2021/08/31 04:43:37;;;;;;;24.63;5.57;;;19.10;90.90;;;;;;5012596;28;20038;-78
2021/08/31 04:46:02;;;;;;;14.07;5.05;;;19.10;90.90;;;;;;5011761;28;20034;-80
2021/08/31 04:48:28;;;;;;;29.52;6.05;;;19.10;90.90;;;;;;5003735;28;20054;-82
2021/08/31 04:50:53;;;;;;;18.75;5.22;;;19.10;90.90;;;;;;5008524;28;20022;-80
2021/08/31 04:53:20;;;;;;;13.38;5.35;;;19.10;90.90;;;;;;5004156;28;20034;-78
2021/08/31 04:55:46;;;;;;;18.52;5.18;;;19.10;90.80;;;;;;5004485;28;20030;-83
2021/08/31 04:58:12;;;;;;;13.40;4.97;;;19.00;90.80;;;;;;5006764;28;20041;-83
2021/08/31 05:00:38;;;;;;;16.52;5.53;;;19.00;90.90;;;;;;5001222;28;20042;-81
2021/08/31 05:03:04;;;;;;;9.73;4.97;;;19.00;90.90;;;;;;4997353;28;20143;-74
2021/08/31 05:05:30;;;;;;;18.92;5.45;;;19.00;90.90;;;;;;4998019;28;20065;-75
2021/08/31 05:07:55;;;;;;;14.90;4.68;;;19.00;90.90;;;;;;5004214;28;20073;-74
2021/08/31 05:10:21;;;;;;;41.47;7.10;;;19.00;90.90;;;;;;5001178;28;20030;-77
2021/08/31 05:12:47;;;;;;;12.48;4.80;;;19.00;90.90;;;;;;5000460;28;20026;-73
2021/08/31 05:15:12;;;;;;;19.52;5.90;;;19.00;90.90;;;;;;5012753;28;20057;-73
2021/08/31 05:17:39;;;;;;;11.23;5.22;;;18.90;90.90;;;;;;5016079;28;20056;-73
2021/08/31 05:20:06;;;;;;;21.60;6.20;;;19.00;91.00;;;;;;5013898;28;20030;-72
2021/08/31 05:22:31;;;;;;;23.95;6.20;;;19.00;91.00;;;;;;4995789;28;20041;-72
2021/08/31 05:25:01;;;;;;;14.63;6.20;;;19.00;91.10;;;;;;5005281;28;20029;-71
2021/08/31 05:27:27;;;;;;;15.95;5.45;;;18.90;91.10;;;;;;5011535;28;20042;-72
2021/08/31 05:29:53;;;;;;;14.95;5.50;;;18.90;91.20;;;;;;5007943;28;20090;-72
2021/08/31 05:32:20;;;;;;;14.50;5.25;;;19.00;91.30;;;;;;5008614;28;20501;-72
2021/08/31 05:34:45;;;;;;;11.07;4.85;;;19.00;91.20;;;;;;5002254;28;20531;-72
2021/08/31 05:37:11;;;;;;;14.18;5.78;;;19.00;91.20;;;;;;5006272;28;20030;-72
2021/08/31 05:39:37;;;;;;;12.40;4.88;;;18.90;91.20;;;;;;5011652;28;20052;-72
2021/08/31 05:42:05;;;;;;;12.85;4.72;;;18.90;91.20;;;;;;4999623;28;20034;-72
2021/08/31 05:44:32;;;;;;;15.35;5.97;;;18.90;91.10;;;;;;5002475;28;20026;-71
2021/08/31 05:46:58;;;;;;;14.75;5.32;;;18.90;91.40;;;;;;5013562;28;20038;-71
2021/08/31 05:49:25;;;;;;;16.27;5.30;;;19.00;91.30;;;;;;5005062;28;20038;-71
2021/08/31 05:51:52;;;;;;;12.35;6.15;;;18.90;91.30;;;;;;5005395;28;20076;-71
2021/08/31 05:54:20;;;;;;;16.33;5.15;;;18.90;91.30;;;;;;5008809;28;20044;-71
2021/08/31 05:56:47;;;;;;;12.68;5.60;;;18.90;91.40;;;;;;5005068;28;20474;-72
2021/08/31 05:59:13;;;;;;;16.50;5.22;;;19.00;91.50;;;;;;5003910;28;20112;-71
2021/08/31 06:01:40;;;;;;;16.90;5.65;;;18.90;91.60;;;;;;5004659;28;20109;-72
2021/08/31 06:04:05;;;;;;;15.60;5.00;;;18.90;91.60;;;;;;5005355;28;20022;-71
2021/08/31 06:06:31;;;;;;;13.95;5.20;;;18.90;91.70;;;;;;5006706;28;20088;-71
2021/08/31 06:08:56;;;;;;;12.95;5.10;;;18.90;91.80;;;;;;5002353;28;20042;-71
2021/08/31 06:11:22;;;;;;;11.43;5.45;;;18.90;91.80;;;;;;4998977;28;20022;-71
2021/08/31 06:13:48;;;;;;;15.05;5.88;;;18.90;91.80;;;;;;5002025;28;20034;-71
2021/08/31 06:16:14;;;;;;;17.92;5.47;;;18.90;91.90;;;;;;5010122;28;20084;-72
2021/08/31 06:18:40;;;;;;;13.18;5.35;;;18.90;91.90;;;;;;5000435;28;20026;-73
2021/08/31 06:21:06;;;;;;;18.05;5.20;;;18.90;91.90;;;;;;5000173;28;20504;-74
2021/08/31 06:23:32;;;;;;;20.75;5.97;;;19.00;92.00;;;;;;5002616;28;20111;-71
2021/08/31 06:25:58;;;;;;;19.88;6.68;;;19.00;91.80;;;;;;5009381;28;20100;-71
2021/08/31 06:28:24;;;;;;;19.55;7.10;;;19.00;91.70;;;;;;5013928;28;20029;-71
2021/08/31 06:30:49;;;;;;;15.57;6.53;;;19.00;91.70;;;;;;5013683;28;20056;-71
2021/08/31 06:33:15;;;;;;;18.25;6.40;;;19.10;91.80;;;;;;5005680;28;20117;-72
2021/08/31 06:35:41;;;;;;;13.95;6.20;;;19.00;91.50;;;;;;5013270;28;20034;-71
2021/08/31 06:38:06;;;;;;;14.02;6.53;;;19.10;91.70;;;;;;5004176;28;20030;-71
2021/08/31 06:40:32;;;;;;;15.35;5.25;;;19.10;91.50;;;;;;5002676;28;20027;-71
2021/08/31 06:42:58;;;;;;;15.60;6.00;;;19.10;91.30;;;;;;4998097;28;20367;-71
2021/08/31 06:45:24;;;;;;;12.82;4.97;;;19.10;91.20;;;;;;5004996;28;20037;-71
2021/08/31 06:47:50;;;;;;;13.68;5.88;;;19.10;91.00;;;;;;5009942;28;20042;-71
2021/08/31 06:50:16;;;;;;;20.48;6.38;;;19.10;91.00;;;;;;5008795;28;20049;-71
2021/08/31 06:52:44;;;;;;;15.98;6.40;;;19.10;91.10;;;;;;5002118;28;20371;-71
2021/08/31 06:55:10;;;;;;;22.20;7.03;;;19.10;91.20;;;;;;5011695;28;20041;-71
2021/08/31 06:57:36;;;;;;;11.95;5.50;;;19.10;91.30;;;;;;5003598;28;20461;-72
2021/08/31 07:00:05;;;;;;;18.60;6.07;;;19.20;91.50;;;;;;5009635;28;20026;-71
2021/08/31 07:02:30;;;;;;;17.13;4.25;;;19.20;91.40;;;;;;5007347;28;20042;-74
2021/08/31 07:04:57;;;;;;;7.85;3.40;;;19.20;91.10;;;;;;5012846;28;20033;-75
2021/08/31 07:07:23;;;;;;;8.20;2.63;;;19.20;90.70;;;;;;5011127;28;20409;-78
2021/08/31 07:09:48;;;;;;;15.88;4.35;;;19.20;90.50;;;;;;5013090;28;20034;-72
2021/08/31 07:12:14;;;;;;;12.65;3.88;;;19.30;90.60;;;;;;4999479;28;20038;-72
2021/08/31 07:14:40;;;;;;;15.35;3.97;;;19.20;90.70;;;;;;5012056;28;20038;-72
2021/08/31 07:17:06;;;;;;;18.83;3.90;;;19.30;91.00;;;;;;5010908;28;20099;-72
2021/08/31 07:19:31;;;;;;;17.52;3.75;;;19.30;91.00;;;;;;5008306;28;20021;-72
2021/08/31 07:21:57;;;;;;;10.80;3.67;;;19.40;91.10;;;;;;5012787;28;20029;-72
2021/08/31 07:24:23;;;;;;;16.27;3.85;;;19.40;90.80;;;;;;5009150;28;20026;-73
2021/08/31 07:26:49;;;;;;;19.40;4.22;;;19.40;90.80;;;;;;5011742;28;20045;-72
2021/08/31 07:29:15;;;;;;;12.02;3.00;;;19.50;90.80;;;;;;5011302;28;20051;-72
2021/08/31 07:31:41;;;;;;;15.05;3.55;;;19.50;90.60;;;;;;5010043;28;20017;-72
2021/08/31 07:34:06;;;;;;;13.60;3.70;;;19.60;90.60;;;;;;5008681;28;20366;-72
2021/08/31 07:36:32;;;;;;;14.15;3.22;;;19.60;90.50;;;;;;5003067;28;20022;-72
2021/08/31 07:38:58;;;;;;;18.65;3.67;;;19.70;90.60;;;;;;5009848;28;20033;-72
2021/08/31 07:41:24;;;;;;;20.65;3.53;;;19.60;90.40;;;;;;5011106;28;20034;-72
2021/08/31 07:43:51;;;;;;;10.98;3.20;;;19.70;90.40;;;;;;5010576;28;20386;-72
2021/08/31 07:46:18;;;;;;;12.40;3.05;;;19.70;90.30;;;;;;5010685;28;20030;-72
2021/08/31 07:48:44;;;;;;;16.25;4.63;;;19.70;90.20;;;;;;5002793;28;20035;-72
2021/08/31 07:51:10;;;;;;;14.88;3.60;;;19.70;90.10;;;;;;5002869;28;20030;-72
2021/08/31 07:53:36;;;;;;;9.82;3.67;;;19.70;90.10;;;;;;5012324;28;20034;-72
2021/08/31 07:56:03;;;;;;;19.27;4.50;;;19.80;90.00;;;;;;5011813;28;20041;-72
2021/08/31 07:58:29;;;;;;;17.58;4.03;;;19.70;89.80;;;;;;5004751;28;20033;-72
2021/08/31 08:00:55;;;;;;;19.08;3.72;;;19.80;89.70;;;;;;5006798;28;20040;-72
2021/08/31 08:03:21;;;;;;;15.32;3.65;;;19.70;89.60;;;;;;5006318;28;20126;-72
2021/08/31 08:05:47;;;;;;;16.20;3.17;;;19.70;89.80;;;;;;5012229;28;20552;-72
2021/08/31 08:08:12;;;;;;;15.32;3.53;;;19.70;89.80;;;;;;5006962;28;20086;-72
2021/08/31 08:10:38;;;;;;;15.50;3.67;;;19.70;89.90;;;;;;5000642;28;20097;-72
2021/08/31 08:13:04;;;;;;;10.13;3.72;;;19.70;89.90;;;;;;5009328;28;20114;-72
2021/08/31 08:15:30;;;;;;;13.50;3.20;;;19.70;89.80;;;;;;5011717;28;20026;-72
2021/08/31 08:17:56;;;;;;;9.15;2.85;;;19.70;89.80;;;;;;5005989;28;20489;-73
2021/08/31 08:20:22;;;;;;;21.13;3.20;;;19.80;89.80;;;;;;5011134;28;20049;-72
2021/08/31 08:22:48;;;;;;;10.68;3.08;;;19.80;89.60;;;;;;5011975;28;20052;-72
2021/08/31 08:25:14;;;;;;;13.40;3.65;;;19.80;89.30;;;;;;5006435;28;20042;-72
2021/08/31 08:27:40;;;;;;;8.57;3.03;;;19.80;89.30;;;;;;5006972;28;20115;-72
2021/08/31 08:30:07;;;;;;;13.45;3.35;;;19.80;89.30;;;;;;5010175;28;20026;-72
2021/08/31 08:32:32;;;;;;;12.45;3.10;;;19.80;89.30;;;;;;5010603;28;20037;-72
2021/08/31 08:34:58;;;;;;;19.25;4.03;;;19.80;89.50;;;;;;5007651;28;20385;-72
2021/08/31 08:37:24;;;;;;;14.57;3.55;;;19.80;89.00;;;;;;5007141;28;20042;-72
2021/08/31 08:39:50;;;;;;;13.75;3.70;;;19.90;89.10;;;;;;5002723;28;20010;-72
2021/08/31 08:42:16;;;;;;;19.17;4.70;;;19.90;88.90;;;;;;5007638;28;20037;-72
2021/08/31 08:44:41;;;;;;;16.15;3.80;;;19.90;88.70;;;;;;5005340;28;20038;-72
2021/08/31 08:47:07;;;;;;;12.80;3.13;;;19.90;88.70;;;;;;5011388;28;20375;-72
2021/08/31 08:49:33;;;;;;;14.30;3.80;;;19.90;89.00;;;;;;5010511;28;20785;-72
2021/08/31 08:51:59;;;;;;;9.07;2.33;;;20.00;88.80;;;;;;5006815;28;20045;-72
2021/08/31 08:54:26;;;;;;;14.43;3.60;;;20.00;88.90;;;;;;5012813;28;20547;-72
2021/08/31 08:56:53;;;;;;;13.95;3.17;;;20.10;89.00;;;;;;5006961;28;20031;-72
2021/08/31 08:59:20;;;;;;;22.35;3.80;;;20.10;88.70;;;;;;5002953;28;20041;-72
2021/08/31 09:01:51;;;;;;;13.10;2.75;;;20.20;88.30;;;;;;5011877;28;20034;-72
2021/08/31 09:04:20;;;;;;;19.42;3.55;;;20.20;88.30;;;;;;5009856;28;20048;-75
2021/08/31 09:06:47;;;;;;;11.23;3.10;;;20.20;88.10;;;;;;5008440;28;20026;-76
2021/08/31 09:09:13;;;;;;;20.40;3.30;;;20.20;88.40;;;;;;5011234;28;20062;-76
2021/08/31 09:11:46;;;;;;;22.42;4.20;;;20.30;88.40;;;;;;5008282;28;20096;-76
2021/08/31 09:14:28;;;;;;;17.75;3.55;;;20.30;88.20;;;;;;4997562;28;20030;-75
2021/08/31 09:17:00;;;;;;;14.40;3.28;;;20.30;88.10;;;;;;5007966;28;20054;-76
2021/08/31 09:19:43;;;;;;;18.60;3.30;;;20.40;87.90;;;;;;5001966;28;20080;-76
2021/08/31 09:22:20;;;;;;;12.98;3.15;;;20.40;87.80;;;;;;5011934;28;20100;-76
2021/08/31 09:24:56;;;;;;;14.82;2.90;;;20.50;87.60;;;;;;5009908;28;20528;-75
2021/08/31 09:27:36;;;;;;;13.90;3.45;;;20.50;87.00;;;;;;4999603;28;20038;-76
2021/08/31 09:30:37;;;;;;;17.38;3.70;;;20.50;86.50;;;;;;5002766;28;20492;-76
2021/08/31 09:33:08;;;;;;;13.45;3.25;;;20.60;86.60;;;;;;4970175;28;20146;-76
2021/08/31 09:35:44;;;;;;;15.75;3.20;;;20.60;86.70;;;;;;5002562;28;20066;-76
2021/08/31 09:38:13;;;;;;;11.77;3.40;;;20.60;86.90;;;;;;5010408;28;20030;-76
2021/08/31 09:40:48;;;;;;;14.95;3.45;;;20.60;86.80;;;;;;4997490;28;20030;-77
2021/08/31 09:43:20;;;;;;;20.02;4.28;;;20.70;86.90;;;;;;4994231;28;20027;-74
2021/08/31 09:45:49;;;;;;;18.67;3.70;;;20.70;86.80;;;;;;4992301;28;20034;-74
2021/08/31 09:48:18;;;;;;;13.68;3.03;;;20.70;86.80;;;;;;5004914;28;20096;-75
2021/08/31 09:50:49;;;;;;;18.70;3.72;;;20.70;86.90;;;;;;5002963;28;20034;-74
2021/08/31 09:53:24;;;;;;;9.27;2.85;;;20.70;86.70;;;;;;4997212;28;20046;-75
2021/08/31 09:56:05;;;;;;;12.43;2.97;;;20.80;87.10;;;;;;5004490;28;20057;-74
2021/08/31 09:58:33;;;;;;;13.63;2.90;;;20.80;86.80;;;;;;5002456;28;20030;-74
2021/08/31 10:00:59;;;;;;;14.73;3.22;;;20.80;86.70;;;;;;5002960;28;20470;-75
2021/08/31 10:03:25;;;;;;;17.58;3.42;;;20.80;86.50;;;;;;5004036;28;20553;-74
2021/08/31 10:05:54;;;;;;;5.45;2.95;;;20.90;86.20;;;;;;5006963;28;20394;-74
2021/08/31 10:08:20;;;;;;;18.45;3.60;;;20.90;86.00;;;;;;5010299;28;20077;-75
2021/08/31 10:10:49;;;;;;;12.63;3.90;;;20.90;85.90;;;;;;5014685;28;20053;-75
2021/08/31 10:13:18;;;;;;;12.18;3.20;;;20.90;84.80;;;;;;5015072;28;20074;-75
2021/08/31 10:15:47;;;;;;;13.38;3.42;;;21.00;85.10;;;;;;5001681;28;20481;-76
2021/08/31 10:18:15;;;;;;;16.85;3.45;;;21.00;84.60;;;;;;5014030;28;20026;-76
2021/08/31 10:20:47;;;;;;;15.55;3.25;;;21.00;84.80;;;;;;5017113;28;20106;-85
2021/08/31 10:23:15;;;;;;;12.02;3.38;;;21.10;84.30;;;;;;5002194;28;20032;-86
2021/08/31 10:25:41;;;;;;;16.08;3.03;;;21.10;83.90;;;;;;5014236;28;20053;-84
2021/08/31 10:28:27;;;;;;;13.10;3.28;;;21.10;84.40;;;;;;5009984;28;20427;-83
2021/08/31 10:30:57;;;;;;;15.05;2.63;;;21.10;84.30;;;;;;5007443;28;20057;-83
2021/08/31 10:33:49;;;;;;;17.63;3.17;;;21.10;84.80;;;;;;5010951;28;20030;-82
2021/08/31 10:36:14;;;;;;;13.85;2.95;;;21.10;85.00;;;;;;5005160;28;20044;-84
2021/08/31 10:38:47;;;;;;;12.18;2.70;;;21.10;84.90;;;;;;5005544;28;20112;-84
2021/08/31 10:41:44;;;;;;;6.68;2.50;;;21.20;84.70;;;;;;5012555;28;20030;-83
2021/08/31 10:44:34;;;;;;;12.18;3.38;;;21.20;84.60;;;;;;5005678;28;20031;-83
2021/08/31 10:47:13;;;;;;;20.92;3.60;;;21.30;85.00;;;;;;5009249;28;20030;-83
2021/08/31 10:49:57;;;;;;;14.82;3.70;;;21.30;84.70;;;;;;5007780;28;20051;-83
2021/08/31 10:52:35;;;;;;;;;;;21.40;85.00;;;;;;5001430;28;20030;-83
2021/08/31 10:55:01;;;;;;;15.15;3.20;;;21.40;85.80;;;;;;5011860;28;19932;-83
2021/08/31 10:57:35;;;;;;;13.98;3.55;;;21.40;85.50;;;;;;5004768;28;20026;-83
2021/08/31 11:00:21;;;;;;;13.63;3.55;;;21.30;85.10;;;;;;5013470;28;20042;-82
2021/08/31 11:02:49;;;;;;;9.98;2.63;;;21.30;85.40;;;;;;5003391;28;20041;-77
2021/08/31 11:05:18;;;;;;;15.63;3.25;;;21.30;85.40;;;;;;5008897;28;20084;-73
2021/08/31 11:07:48;;;;;;;14.27;2.72;;;21.30;84.60;;;;;;5012669;28;20362;-73
2021/08/31 11:10:25;;;;;;;15.88;3.30;;;21.40;84.60;;;;;;5012466;28;20030;-73
2021/08/31 11:12:52;;;;;;;12.70;2.78;;;21.40;84.20;;;;;;4993326;28;20121;-73
2021/08/31 11:15:22;;;;;;;10.60;3.50;;;21.40;84.20;;;;;;5006276;28;20066;-73
2021/08/31 11:17:49;;;;;;;14.30;2.90;;;21.40;84.20;;;;;;5004876;28;20033;-73
2021/08/31 11:20:25;;;;;;;9.90;3.03;;;21.40;84.60;;;;;;5000067;28;20038;-73
2021/08/31 11:22:54;;;;;;;12.45;2.75;;;21.40;84.70;;;;;;5010097;28;20104;-73
2021/08/31 11:25:27;;;;;;;17.13;3.00;;;21.50;84.90;;;;;;4999680;28;20069;-73
2021/08/31 11:27:57;;;;;;;13.60;2.88;;;21.50;84.60;;;;;;5004729;28;20074;-73
2021/08/31 11:30:25;;;;;;;17.65;3.47;;;21.40;84.50;;;;;;5013650;28;20040;-73
2021/08/31 11:33:14;;;;;;;10.15;3.20;;;21.40;84.90;;;;;;5004266;28;20466;-73
2021/08/31 11:35:41;;;;;;;15.43;2.92;;;21.40;84.70;;;;;;5000388;28;20497;-73
2021/08/31 11:38:07;;;;;;;17.98;3.20;;;21.40;84.70;;;;;;5003487;28;20065;-75
2021/08/31 11:40:32;;;;;;;18.63;2.53;;;21.40;84.40;;;;;;5005102;28;20072;-75
2021/08/31 11:42:59;;;;;;;13.82;3.10;;;21.40;84.30;;;;;;5012631;28;20034;-76
2021/08/31 11:45:37;;;;;;;14.65;3.10;;;21.40;83.70;;;;;;5008799;28;20074;-75
2021/08/31 11:48:04;;;;;;;16.00;2.88;;;21.50;84.10;;;;;;5008037;28;20052;-75
2021/08/31 11:50:29;;;;;;;19.60;3.60;;;21.40;83.20;;;;;;5008641;28;20034;-75
2021/08/31 11:52:55;;;;;;;19.77;3.10;;;21.50;83.10;;;;;;5002010;28;20544;-75
2021/08/31 11:55:27;;;;;;;16.58;3.13;;;21.40;83.30;;;;;;5010436;28;20030;-74
2021/08/31 11:58:03;;;;;;;9.48;2.42;;;21.50;83.00;;;;;;5010171;28;20025;-87
2021/08/31 12:00:43;;;;;;;13.05;3.13;;;21.60;82.90;;;;;;5003909;28;20022;-85
2021/08/31 12:03:24;;;;;;;22.17;3.90;;;21.50;82.90;;;;;;5001773;28;20022;-85
2021/08/31 12:05:56;;;;;;;13.48;2.70;;;21.50;82.60;;;;;;5000713;28;20029;-85
2021/08/31 12:08:23;;;;;;;13.20;3.73;;;21.60;82.60;;;;;;5000043;28;20410;-81
2021/08/31 12:10:52;;;;;;;9.52;2.97;;;21.60;82.20;;;;;;4997662;28;20034;-75
2021/08/31 12:13:20;;;;;;;17.30;3.33;;;21.60;83.10;;;;;;5011344;28;20041;-83
2021/08/31 12:15:48;;;;;;;13.85;3.33;;;21.60;82.90;;;;;;5007358;28;20022;-82
2021/08/31 12:18:17;;;;;;;10.70;2.63;;;21.60;83.70;;;;;;5001483;28;20104;-83
2021/08/31 12:20:43;;;;;;;14.57;2.83;;;21.60;82.80;;;;;;5012016;28;20029;-82
2021/08/31 12:23:10;;;;;;;17.33;3.65;;;21.60;82.30;;;;;;5009377;28;21560;-83
2021/08/31 12:25:47;;;;;;;13.65;2.58;;;21.60;81.90;;;;;;5004177;28;20486;-82
2021/08/31 12:28:14;;;;;;;11.50;2.95;;;21.70;81.80;;;;;;4999895;28;20455;-73
2021/08/31 12:30:42;;;;;;;12.10;2.67;;;21.60;81.80;;;;;;4994155;28;20493;-73
2021/08/31 12:33:10;;;;;;;15.25;2.92;;;21.60;81.80;;;;;;5008275;28;20026;-73
2021/08/31 12:38:08;;;;;;;16.83;2.90;;;21.70;81.80;;;;;;5005965;28;20397;-73
2021/08/31 12:40:36;;;;;;;15.85;2.88;;;21.70;81.60;;;;;;5015568;28;20117;-75
2021/08/31 12:43:11;;;;;;;18.50;2.75;;;21.80;81.30;;;;;;4999909;28;20068;-73
2021/08/31 12:45:40;;;;;;;18.05;3.30;;;21.80;81.30;;;;;;5002648;28;20477;-73